Monday, December 18, 2017, 7:55 AM EST
Back to Local

KMHT, Manchester Airport

Location: Manchester, NH, United States Lat: 42.933
Local Time: 7:55 AM EST (12:55 GMT) Lon: -71.433
Time Zone: US/Eastern Elev: 232 ft

Show me the last for .
Show Decoded

2017-12-18 07:02 METAR KMHT 181202Z 19003KT 9SM BKN027 BKN041 OVC060 M07/M12 A3017 RMK AO2 SNE02
                 P0000 T10721117 =
2017-12-18 06:53 METAR KMHT 181153Z 00000KT 9SM -SN FEW027 BKN041 OVC060 M07/M12 A3017 RMK AO2
                 SLP236 4/003 P0000 60000 T10721122 11067 21083 56007 =
2017-12-18 05:53 METAR KMHT 181053Z 00000KT 9SM -SN BKN060 OVC075 M07/M12 A3017 RMK AO2 SNB27
                 SLP236 P0000 T10721122 =
2017-12-18 04:53 METAR KMHT 180953Z 00000KT 10SM FEW080 BKN100 OVC120 M07/M12 A3017 RMK AO2
                 SLP237 T10721122 =
2017-12-18 03:53 METAR KMHT 180853Z 20004KT 10SM SCT090 BKN160 OVC200 M08/M12 A3019 RMK AO2
                 SLP243 T10781122 58007 =
2017-12-18 02:53 METAR KMHT 180753Z 00000KT 10SM BKN160 OVC200 M08/M12 A3020 RMK AO2 SLP247
                 T10781122 =
2017-12-18 01:53 METAR KMHT 180653Z 00000KT 10SM BKN160 OVC200 M08/M13 A3022 RMK AO2 SLP254
                 T10781133 =
2017-12-18 00:53 METAR KMHT 180553Z 00000KT 10SM BKN160 OVC200 M08/M13 A3021 RMK AO2 SLP250 4/003
                 T10831133 11061 21083 56014 =
2017-12-17 23:53 METAR KMHT 180453Z 00000KT 10SM BKN160 OVC200 M08/M14 A3022 RMK AO2 SLP253
                 T10781139 410281117 =
2017-12-17 22:53 METAR KMHT 180353Z 00000KT 10SM OVC160 M07/M14 A3023 RMK AO2 SLP257 T10721139 =
2017-12-17 21:53 METAR KMHT 180253Z 34005KT 10SM OVC160 M07/M14 A3025 RMK AO2 SLP264 T10671144
                 50002 =
2017-12-17 20:53 METAR KMHT 180153Z 28003KT 10SM OVC160 M07/M14 A3026 RMK AO2 SLP270 T10671144 =
2017-12-17 19:53 METAR KMHT 180053Z 30005KT 10SM OVC200 M06/M14 A3027 RMK AO2 SLP270 T10611144 =
2017-12-17 18:53 METAR KMHT 172353Z 32005KT 10SM OVC250 M06/M15 A3024 RMK AO2 SLP263 4/003
                 T10611150 11028 21061 51010 =
2017-12-17 17:53 METAR KMHT 172253Z 34004KT 10SM OVC250 M06/M15 A3024 RMK AO2 SLP260 T10561150 =
2017-12-17 16:53 METAR KMHT 172153Z 34003KT 10SM OVC250 M04/M16 A3023 RMK AO2 SLP258 T10441156 =
2017-12-17 15:53 METAR KMHT 172053Z 32006KT 10SM OVC250 M04/M16 A3021 RMK AO2 SLP251 T10391161
                 55001 =
2017-12-17 14:53 METAR KMHT 171953Z 32008KT 10SM BKN250 M04/M16 A3019 RMK AO2 SLP244 T10391161 =
2017-12-17 13:53 METAR KMHT 171853Z 34012KT 10SM BKN250 M03/M16 A3020 RMK AO2 SLP247 T10331156 =
2017-12-17 12:53 METAR KMHT 171753Z 30009KT 10SM SCT250 M03/M16 A3021 RMK AO2 SLP252 4/003
                 T10281161 11028 21111 58016 =
2017-12-17 11:53 METAR KMHT 171653Z 32006KT 10SM FEW250 M04/M16 A3024 RMK AO2 SLP259 T10391156 =
2017-12-17 10:53 METAR KMHT 171553Z 32003KT 10SM FEW250 M06/M15 A3025 RMK AO2 SLP265 T10561150 =
2017-12-17 09:53 METAR KMHT 171453Z 33008KT 10SM FEW250 M07/M14 A3026 RMK AO2 SLP269 T10721144
                 53011 =
2017-12-17 08:53 METAR KMHT 171353Z 31008KT 10SM FEW250 M09/M15 A3025 RMK AO2 SLP263 T10891150 =

Support USWX by starting your Amazon purchase here.